sensor_id;sensor_type;location;lat;lon;timestamp;temperature;humidity
49729;DHT22;35617;50.714;7.114;2022-08-21T00:00:49;19.60;89.30
49729;DHT22;35617;50.714;7.114;2022-08-21T00:03:15;19.60;89.40
49729;DHT22;35617;50.714;7.114;2022-08-21T00:05:47;19.60;89.40
49729;DHT22;35617;50.714;7.114;2022-08-21T00:08:15;19.70;89.50
49729;DHT22;35617;50.714;7.114;2022-08-21T00:10:42;19.70;89.40
49729;DHT22;35617;50.714;7.114;2022-08-21T00:13:10;19.70;89.50
49729;DHT22;35617;50.714;7.114;2022-08-21T00:15:37;19.70;89.40
49729;DHT22;35617;50.714;7.114;2022-08-21T00:18:04;19.70;89.50
49729;DHT22;35617;50.714;7.114;2022-08-21T00:20:30;19.70;89.60
49729;DHT22;35617;50.714;7.114;2022-08-21T00:22:56;19.70;89.50
49729;DHT22;35617;50.714;7.114;2022-08-21T00:25:22;19.70;89.50
49729;DHT22;35617;50.714;7.114;2022-08-21T00:27:48;19.70;89.70
49729;DHT22;35617;50.714;7.114;2022-08-21T00:30:16;19.70;89.80
49729;DHT22;35617;50.714;7.114;2022-08-21T00:32:42;19.60;89.90
49729;DHT22;35617;50.714;7.114;2022-08-21T00:35:11;19.70;89.80
49729;DHT22;35617;50.714;7.114;2022-08-21T00:37:38;19.60;89.90
49729;DHT22;35617;50.714;7.114;2022-08-21T00:40:07;19.60;90.20
49729;DHT22;35617;50.714;7.114;2022-08-21T00:42:33;19.50;90.00
49729;DHT22;35617;50.714;7.114;2022-08-21T00:44:59;19.50;90.00
49729;DHT22;35617;50.714;7.114;2022-08-21T00:47:24;19.50;90.10
49729;DHT22;35617;50.714;7.114;2022-08-21T00:49:50;19.40;90.30
49729;DHT22;35617;50.714;7.114;2022-08-21T00:52:21;19.40;90.30
49729;DHT22;35617;50.714;7.114;2022-08-21T00:54:48;19.40;90.40
49729;DHT22;35617;50.714;7.114;2022-08-21T00:57:22;19.40;90.40
49729;DHT22;35617;50.714;7.114;2022-08-21T00:59:51;19.40;90.50
49729;DHT22;35617;50.714;7.114;2022-08-21T01:02:18;19.30;90.40
49729;DHT22;35617;50.714;7.114;2022-08-21T01:04:45;19.30;90.50
49729;DHT22;35617;50.714;7.114;2022-08-21T01:07:11;19.20;90.60
49729;DHT22;35617;50.714;7.114;2022-08-21T01:09:38;19.20;90.70
49729;DHT22;35617;50.714;7.114;2022-08-21T01:12:04;19.20;90.70
49729;DHT22;35617;50.714;7.114;2022-08-21T01:14:31;19.20;90.80
49729;DHT22;35617;50.714;7.114;2022-08-21T01:16:58;19.10;90.90
49729;DHT22;35617;50.714;7.114;2022-08-21T01:19:27;19.10;91.00
49729;DHT22;35617;50.714;7.114;2022-08-21T01:21:53;19.10;91.00
49729;DHT22;35617;50.714;7.114;2022-08-21T01:24:19;19.10;91.00
49729;DHT22;35617;50.714;7.114;2022-08-21T01:26:45;19.10;91.10
49729;DHT22;35617;50.714;7.114;2022-08-21T01:29:32;19.10;91.20
49729;DHT22;35617;50.714;7.114;2022-08-21T01:32:03;19.00;91.30
49729;DHT22;35617;50.714;7.114;2022-08-21T01:34:29;19.00;91.40
49729;DHT22;35617;50.714;7.114;2022-08-21T01:36:55;19.00;91.50
49729;DHT22;35617;50.714;7.114;2022-08-21T01:39:21;18.90;91.50
49729;DHT22;35617;50.714;7.114;2022-08-21T01:41:46;18.90;91.60
49729;DHT22;35617;50.714;7.114;2022-08-21T01:44:12;18.90;91.60
49729;DHT22;35617;50.714;7.114;2022-08-21T01:46:37;18.90;91.70
49729;DHT22;35617;50.714;7.114;2022-08-21T01:49:04;18.90;91.70
49729;DHT22;35617;50.714;7.114;2022-08-21T01:51:30;18.90;91.80
49729;DHT22;35617;50.714;7.114;2022-08-21T01:53:55;18.80;91.90
49729;DHT22;35617;50.714;7.114;2022-08-21T01:56:21;18.80;92.00
49729;DHT22;35617;50.714;7.114;2022-08-21T01:58:48;18.80;92.00
49729;DHT22;35617;50.714;7.114;2022-08-21T02:01:14;18.80;92.00
49729;DHT22;35617;50.714;7.114;2022-08-21T02:03:41;18.80;92.00
49729;DHT22;35617;50.714;7.114;2022-08-21T02:06:10;18.70;92.10
49729;DHT22;35617;50.714;7.114;2022-08-21T02:08:37;18.70;92.10
49729;DHT22;35617;50.714;7.114;2022-08-21T02:11:02;18.60;92.20
49729;DHT22;35617;50.714;7.114;2022-08-21T02:13:28;18.60;92.30
49729;DHT22;35617;50.714;7.114;2022-08-21T02:15:54;18.60;92.40
49729;DHT22;35617;50.714;7.114;2022-08-21T02:18:19;18.60;92.50
49729;DHT22;35617;50.714;7.114;2022-08-21T02:20:48;18.60;92.60
49729;DHT22;35617;50.714;7.114;2022-08-21T02:23:14;18.50;92.90
49729;DHT22;35617;50.714;7.114;2022-08-21T02:25:40;18.50;92.70
49729;DHT22;35617;50.714;7.114;2022-08-21T02:28:09;18.40;92.80
49729;DHT22;35617;50.714;7.114;2022-08-21T02:30:38;18.30;92.90
49729;DHT22;35617;50.714;7.114;2022-08-21T02:33:05;18.30;93.00
49729;DHT22;35617;50.714;7.114;2022-08-21T02:35:31;18.40;93.10
49729;DHT22;35617;50.714;7.114;2022-08-21T02:38:00;18.30;93.10
49729;DHT22;35617;50.714;7.114;2022-08-21T02:40:28;18.30;93.20
49729;DHT22;35617;50.714;7.114;2022-08-21T02:42:56;18.30;93.30
49729;DHT22;35617;50.714;7.114;2022-08-21T02:45:22;18.30;93.40
49729;DHT22;35617;50.714;7.114;2022-08-21T02:47:58;18.20;93.40
49729;DHT22;35617;50.714;7.114;2022-08-21T02:50:27;18.20;93.50
49729;DHT22;35617;50.714;7.114;2022-08-21T02:52:53;18.20;93.60
49729;DHT22;35617;50.714;7.114;2022-08-21T02:55:20;18.20;93.60
49729;DHT22;35617;50.714;7.114;2022-08-21T02:57:46;18.20;93.70
49729;DHT22;35617;50.714;7.114;2022-08-21T03:00:12;18.10;93.70
49729;DHT22;35617;50.714;7.114;2022-08-21T03:02:39;18.10;93.70
49729;DHT22;35617;50.714;7.114;2022-08-21T03:05:06;18.10;93.80
49729;DHT22;35617;50.714;7.114;2022-08-21T03:07:32;18.10;93.90
49729;DHT22;35617;50.714;7.114;2022-08-21T03:09:58;18.00;93.90
49729;DHT22;35617;50.714;7.114;2022-08-21T03:12:24;18.00;93.90
49729;DHT22;35617;50.714;7.114;2022-08-21T03:14:49;18.00;94.00
49729;DHT22;35617;50.714;7.114;2022-08-21T03:17:15;18.00;94.10
49729;DHT22;35617;50.714;7.114;2022-08-21T03:19:41;18.00;94.20
49729;DHT22;35617;50.714;7.114;2022-08-21T03:22:06;18.00;94.30
49729;DHT22;35617;50.714;7.114;2022-08-21T03:24:32;17.90;94.40
49729;DHT22;35617;50.714;7.114;2022-08-21T03:26:57;17.90;94.50
49729;DHT22;35617;50.714;7.114;2022-08-21T03:29:23;17.80;94.60
49729;DHT22;35617;50.714;7.114;2022-08-21T03:31:49;17.90;94.60
49729;DHT22;35617;50.714;7.114;2022-08-21T03:34:14;17.80;94.70
49729;DHT22;35617;50.714;7.114;2022-08-21T03:36:40;17.80;94.80
49729;DHT22;35617;50.714;7.114;2022-08-21T03:39:06;17.70;94.90
49729;DHT22;35617;50.714;7.114;2022-08-21T03:41:31;17.70;94.90
49729;DHT22;35617;50.714;7.114;2022-08-21T03:43:57;17.70;95.10
49729;DHT22;35617;50.714;7.114;2022-08-21T03:46:24;17.70;95.10
49729;DHT22;35617;50.714;7.114;2022-08-21T03:48:50;17.60;95.10
49729;DHT22;35617;50.714;7.114;2022-08-21T03:51:18;17.60;95.20
49729;DHT22;35617;50.714;7.114;2022-08-21T03:53:44;17.50;95.30
49729;DHT22;35617;50.714;7.114;2022-08-21T03:56:10;17.50;95.40
49729;DHT22;35617;50.714;7.114;2022-08-21T03:58:36;17.50;95.50
49729;DHT22;35617;50.714;7.114;2022-08-21T04:01:03;17.50;95.50
49729;DHT22;35617;50.714;7.114;2022-08-21T04:03:29;17.50;95.60
49729;DHT22;35617;50.714;7.114;2022-08-21T04:05:55;17.50;95.60
49729;DHT22;35617;50.714;7.114;2022-08-21T04:08:21;17.50;95.70
49729;DHT22;35617;50.714;7.114;2022-08-21T04:10:49;17.50;95.70
49729;DHT22;35617;50.714;7.114;2022-08-21T04:13:16;17.40;95.70
49729;DHT22;35617;50.714;7.114;2022-08-21T04:15:42;17.40;95.80
49729;DHT22;35617;50.714;7.114;2022-08-21T04:18:08;17.40;95.90
49729;DHT22;35617;50.714;7.114;2022-08-21T04:20:34;17.40;95.90
49729;DHT22;35617;50.714;7.114;2022-08-21T04:23:01;17.40;96.00
49729;DHT22;35617;50.714;7.114;2022-08-21T04:25:26;17.40;96.00
49729;DHT22;35617;50.714;7.114;2022-08-21T04:27:52;17.30;96.00
49729;DHT22;35617;50.714;7.114;2022-08-21T04:30:18;17.30;96.00
49729;DHT22;35617;50.714;7.114;2022-08-21T04:32:49;17.30;96.10
49729;DHT22;35617;50.714;7.114;2022-08-21T04:35:18;17.30;96.20
49729;DHT22;35617;50.714;7.114;2022-08-21T04:37:43;17.30;96.40
49729;DHT22;35617;50.714;7.114;2022-08-21T04:40:11;17.30;96.10
49729;DHT22;35617;50.714;7.114;2022-08-21T04:42:43;17.30;96.20
49729;DHT22;35617;50.714;7.114;2022-08-21T04:47:42;17.30;96.20
49729;DHT22;35617;50.714;7.114;2022-08-21T04:50:08;17.30;96.20
49729;DHT22;35617;50.714;7.114;2022-08-21T04:52:34;17.30;96.30
49729;DHT22;35617;50.714;7.114;2022-08-21T04:55:00;17.30;96.20
49729;DHT22;35617;50.714;7.114;2022-08-21T04:57:26;17.30;96.30
49729;DHT22;35617;50.714;7.114;2022-08-21T04:59:52;17.20;96.30
49729;DHT22;35617;50.714;7.114;2022-08-21T05:02:18;17.30;96.30
49729;DHT22;35617;50.714;7.114;2022-08-21T05:04:48;17.30;96.30
49729;DHT22;35617;50.714;7.114;2022-08-21T05:07:18;17.20;96.30
49729;DHT22;35617;50.714;7.114;2022-08-21T05:09:44;17.20;96.30
49729;DHT22;35617;50.714;7.114;2022-08-21T05:12:10;17.20;96.20
49729;DHT22;35617;50.714;7.114;2022-08-21T05:14:36;17.30;96.30
49729;DHT22;35617;50.714;7.114;2022-08-21T05:17:02;17.20;96.20
49729;DHT22;35617;50.714;7.114;2022-08-21T05:19:28;17.30;96.20
49729;DHT22;35617;50.714;7.114;2022-08-21T05:21:54;17.30;96.20
49729;DHT22;35617;50.714;7.114;2022-08-21T05:24:20;17.30;96.30
49729;DHT22;35617;50.714;7.114;2022-08-21T05:26:46;17.20;96.30
49729;DHT22;35617;50.714;7.114;2022-08-21T05:29:12;17.30;96.60
49729;DHT22;35617;50.714;7.114;2022-08-21T05:31:38;17.30;96.40
49729;DHT22;35617;50.714;7.114;2022-08-21T05:34:04;17.30;96.40
49729;DHT22;35617;50.714;7.114;2022-08-21T05:36:30;17.40;96.40
49729;DHT22;35617;50.714;7.114;2022-08-21T05:38:56;17.40;96.40
49729;DHT22;35617;50.714;7.114;2022-08-21T05:41:22;17.50;96.30
49729;DHT22;35617;50.714;7.114;2022-08-21T05:43:48;17.50;96.30
49729;DHT22;35617;50.714;7.114;2022-08-21T05:46:14;17.50;96.30
49729;DHT22;35617;50.714;7.114;2022-08-21T05:48:39;17.50;96.20
49729;DHT22;35617;50.714;7.114;2022-08-21T05:51:07;17.40;96.30
49729;DHT22;35617;50.714;7.114;2022-08-21T05:53:34;17.40;96.40
49729;DHT22;35617;50.714;7.114;2022-08-21T05:56:00;17.40;96.30
49729;DHT22;35617;50.714;7.114;2022-08-21T05:58:29;17.40;96.30
49729;DHT22;35617;50.714;7.114;2022-08-21T06:00:55;17.40;96.30
49729;DHT22;35617;50.714;7.114;2022-08-21T06:03:24;17.50;96.30
49729;DHT22;35617;50.714;7.114;2022-08-21T06:05:50;17.50;96.30
49729;DHT22;35617;50.714;7.114;2022-08-21T06:08:17;17.50;96.30
49729;DHT22;35617;50.714;7.114;2022-08-21T06:10:43;17.50;96.40
49729;DHT22;35617;50.714;7.114;2022-08-21T06:13:09;17.50;96.40
49729;DHT22;35617;50.714;7.114;2022-08-21T06:15:35;17.60;96.30
49729;DHT22;35617;50.714;7.114;2022-08-21T06:18:01;17.70;96.30
49729;DHT22;35617;50.714;7.114;2022-08-21T06:20:27;17.70;96.20
49729;DHT22;35617;50.714;7.114;2022-08-21T06:22:53;17.80;96.10
49729;DHT22;35617;50.714;7.114;2022-08-21T06:25:19;17.90;96.10
49729;DHT22;35617;50.714;7.114;2022-08-21T06:27:44;17.90;96.10
49729;DHT22;35617;50.714;7.114;2022-08-21T06:30:10;18.00;96.00
49729;DHT22;35617;50.714;7.114;2022-08-21T06:32:36;18.10;95.90
49729;DHT22;35617;50.714;7.114;2022-08-21T06:35:03;18.10;95.90
49729;DHT22;35617;50.714;7.114;2022-08-21T06:37:29;18.20;96.10
49729;DHT22;35617;50.714;7.114;2022-08-21T06:39:55;18.30;95.70
49729;DHT22;35617;50.714;7.114;2022-08-21T06:42:20;18.30;95.60
49729;DHT22;35617;50.714;7.114;2022-08-21T06:44:46;18.40;95.50
49729;DHT22;35617;50.714;7.114;2022-08-21T06:47:13;18.50;95.40
49729;DHT22;35617;50.714;7.114;2022-08-21T06:49:39;18.60;95.30
49729;DHT22;35617;50.714;7.114;2022-08-21T06:52:09;18.60;95.20
49729;DHT22;35617;50.714;7.114;2022-08-21T06:54:35;18.70;95.20
49729;DHT22;35617;50.714;7.114;2022-08-21T06:57:00;18.80;95.00
49729;DHT22;35617;50.714;7.114;2022-08-21T06:59:26;18.80;94.90
49729;DHT22;35617;50.714;7.114;2022-08-21T07:01:51;18.90;95.20
49729;DHT22;35617;50.714;7.114;2022-08-21T07:04:17;18.90;94.70
49729;DHT22;35617;50.714;7.114;2022-08-21T07:06:43;19.00;94.60
49729;DHT22;35617;50.714;7.114;2022-08-21T07:09:09;19.10;94.50
49729;DHT22;35617;50.714;7.114;2022-08-21T07:11:36;19.20;94.50
49729;DHT22;35617;50.714;7.114;2022-08-21T07:14:02;19.20;94.40
49729;DHT22;35617;50.714;7.114;2022-08-21T07:16:28;19.30;94.10
49729;DHT22;35617;50.714;7.114;2022-08-21T07:18:54;19.40;94.00
49729;DHT22;35617;50.714;7.114;2022-08-21T07:21:19;19.40;94.00
49729;DHT22;35617;50.714;7.114;2022-08-21T07:23:48;19.50;93.90
49729;DHT22;35617;50.714;7.114;2022-08-21T07:26:15;19.60;93.80
49729;DHT22;35617;50.714;7.114;2022-08-21T07:28:41;19.60;93.40
49729;DHT22;35617;50.714;7.114;2022-08-21T07:31:09;19.70;93.40
49729;DHT22;35617;50.714;7.114;2022-08-21T07:33:35;19.80;93.20
49729;DHT22;35617;50.714;7.114;2022-08-21T07:36:01;19.90;93.00
49729;DHT22;35617;50.714;7.114;2022-08-21T07:38:27;19.90;92.90
49729;DHT22;35617;50.714;7.114;2022-08-21T07:40:55;20.00;92.80
49729;DHT22;35617;50.714;7.114;2022-08-21T07:43:21;20.10;92.50
49729;DHT22;35617;50.714;7.114;2022-08-21T07:45:48;20.20;92.50
49729;DHT22;35617;50.714;7.114;2022-08-21T07:48:15;20.20;92.40
49729;DHT22;35617;50.714;7.114;2022-08-21T07:50:41;20.30;92.20
49729;DHT22;35617;50.714;7.114;2022-08-21T07:53:07;20.40;92.00
49729;DHT22;35617;50.714;7.114;2022-08-21T07:55:33;20.40;92.10
49729;DHT22;35617;50.714;7.114;2022-08-21T07:57:59;20.50;92.00
49729;DHT22;35617;50.714;7.114;2022-08-21T08:00:27;20.50;91.60
49729;DHT22;35617;50.714;7.114;2022-08-21T08:02:54;20.50;91.50
49729;DHT22;35617;50.714;7.114;2022-08-21T08:05:23;20.60;91.60
49729;DHT22;35617;50.714;7.114;2022-08-21T08:07:49;20.70;91.50
49729;DHT22;35617;50.714;7.114;2022-08-21T08:10:15;20.70;91.40
49729;DHT22;35617;50.714;7.114;2022-08-21T08:12:43;20.80;91.40
49729;DHT22;35617;50.714;7.114;2022-08-21T08:15:15;20.90;91.30
49729;DHT22;35617;50.714;7.114;2022-08-21T08:17:41;20.90;90.90
49729;DHT22;35617;50.714;7.114;2022-08-21T08:20:08;20.90;90.60
49729;DHT22;35617;50.714;7.114;2022-08-21T08:22:36;21.00;90.40
49729;DHT22;35617;50.714;7.114;2022-08-21T08:25:03;21.10;90.30
49729;DHT22;35617;50.714;7.114;2022-08-21T08:27:29;21.10;90.30
49729;DHT22;35617;50.714;7.114;2022-08-21T08:29:55;21.10;90.20
49729;DHT22;35617;50.714;7.114;2022-08-21T08:32:21;21.20;90.10
49729;DHT22;35617;50.714;7.114;2022-08-21T08:34:48;21.30;89.50
49729;DHT22;35617;50.714;7.114;2022-08-21T08:37:14;21.30;88.80
49729;DHT22;35617;50.714;7.114;2022-08-21T08:39:40;21.40;87.30
49729;DHT22;35617;50.714;7.114;2022-08-21T08:44:46;21.40;86.30
49729;DHT22;35617;50.714;7.114;2022-08-21T08:47:16;21.40;86.80
49729;DHT22;35617;50.714;7.114;2022-08-21T08:49:53;21.50;87.00
49729;DHT22;35617;50.714;7.114;2022-08-21T08:52:24;21.60;86.50
49729;DHT22;35617;50.714;7.114;2022-08-21T08:55:18;21.70;85.40
49729;DHT22;35617;50.714;7.114;2022-08-21T08:57:47;21.70;84.50
49729;DHT22;35617;50.714;7.114;2022-08-21T09:00:16;21.70;83.50
49729;DHT22;35617;50.714;7.114;2022-08-21T09:02:43;21.80;83.60
49729;DHT22;35617;50.714;7.114;2022-08-21T09:05:25;21.80;84.60
49729;DHT22;35617;50.714;7.114;2022-08-21T09:12:59;22.10;84.00
49729;DHT22;35617;50.714;7.114;2022-08-21T09:15:49;22.20;83.10
49729;DHT22;35617;50.714;7.114;2022-08-21T09:23:55;22.40;81.90
49729;DHT22;35617;50.714;7.114;2022-08-21T09:26:37;22.50;81.20
49729;DHT22;35617;50.714;7.114;2022-08-21T09:29:05;22.50;81.70
49729;DHT22;35617;50.714;7.114;2022-08-21T09:31:34;22.60;81.20
49729;DHT22;35617;50.714;7.114;2022-08-21T09:34:05;22.70;80.80
49729;DHT22;35617;50.714;7.114;2022-08-21T09:36:42;22.70;80.40
49729;DHT22;35617;50.714;7.114;2022-08-21T09:39:10;22.80;80.60
49729;DHT22;35617;50.714;7.114;2022-08-21T09:41:38;22.80;79.70
49729;DHT22;35617;50.714;7.114;2022-08-21T09:44:08;22.90;79.00
49729;DHT22;35617;50.714;7.114;2022-08-21T09:46:34;23.00;79.30
49729;DHT22;35617;50.714;7.114;2022-08-21T09:49:03;23.00;78.10
49729;DHT22;35617;50.714;7.114;2022-08-21T09:51:35;23.10;77.90
49729;DHT22;35617;50.714;7.114;2022-08-21T09:56:36;23.20;78.00
49729;DHT22;35617;50.714;7.114;2022-08-21T09:59:29;23.30;76.80
49729;DHT22;35617;50.714;7.114;2022-08-21T10:01:58;23.40;75.30
49729;DHT22;35617;50.714;7.114;2022-08-21T10:04:32;23.40;74.90
49729;DHT22;35617;50.714;7.114;2022-08-21T10:07:14;23.50;74.50
49729;DHT22;35617;50.714;7.114;2022-08-21T10:09:41;23.50;73.30
49729;DHT22;35617;50.714;7.114;2022-08-21T10:12:18;23.50;71.90
49729;DHT22;35617;50.714;7.114;2022-08-21T10:15:02;23.60;71.60
49729;DHT22;35617;50.714;7.114;2022-08-21T10:20:29;23.60;70.00
49729;DHT22;35617;50.714;7.114;2022-08-21T10:23:35;23.70;69.70
49729;DHT22;35617;50.714;7.114;2022-08-21T10:28:51;23.80;69.30
49729;DHT22;35617;50.714;7.114;2022-08-21T10:37:06;24.00;65.20
49729;DHT22;35617;50.714;7.114;2022-08-21T10:47:47;24.20;63.30
49729;DHT22;35617;50.714;7.114;2022-08-21T10:55:31;24.30;62.90
49729;DHT22;35617;50.714;7.114;2022-08-21T10:58:02;24.40;62.60
49729;DHT22;35617;50.714;7.114;2022-08-21T11:00:49;24.40;62.70
49729;DHT22;35617;50.714;7.114;2022-08-21T11:03:33;24.60;62.30
49729;DHT22;35617;50.714;7.114;2022-08-21T11:06:24;24.70;62.90
49729;DHT22;35617;50.714;7.114;2022-08-21T11:09:10;24.90;63.50
49729;DHT22;35617;50.714;7.114;2022-08-21T11:11:44;25.00;62.60
49729;DHT22;35617;50.714;7.114;2022-08-21T11:17:22;25.20;60.90
49729;DHT22;35617;50.714;7.114;2022-08-21T11:19:59;25.20;59.90
49729;DHT22;35617;50.714;7.114;2022-08-21T11:22:40;25.20;60.90
49729;DHT22;35617;50.714;7.114;2022-08-21T11:25:19;25.30;60.90
49729;DHT22;35617;50.714;7.114;2022-08-21T11:27:54;25.40;61.30
49729;DHT22;35617;50.714;7.114;2022-08-21T11:30:23;25.40;59.60
49729;DHT22;35617;50.714;7.114;2022-08-21T11:33:04;25.50;58.90
49729;DHT22;35617;50.714;7.114;2022-08-21T11:38:26;25.70;57.40
49729;DHT22;35617;50.714;7.114;2022-08-21T11:46:31;25.80;57.80
49729;DHT22;35617;50.714;7.114;2022-08-21T11:49:42;25.80;57.50
49729;DHT22;35617;50.714;7.114;2022-08-21T11:55:18;25.90;57.80
49729;DHT22;35617;50.714;7.114;2022-08-21T11:57:53;26.00;58.20
49729;DHT22;35617;50.714;7.114;2022-08-21T12:00:24;26.10;56.40
49729;DHT22;35617;50.714;7.114;2022-08-21T12:02:54;26.10;56.90
49729;DHT22;35617;50.714;7.114;2022-08-21T12:05:34;26.10;56.90
49729;DHT22;35617;50.714;7.114;2022-08-21T12:08:13;26.20;56.70
49729;DHT22;35617;50.714;7.114;2022-08-21T12:10:46;26.30;56.40
49729;DHT22;35617;50.714;7.114;2022-08-21T12:13:27;26.40;55.90
49729;DHT22;35617;50.714;7.114;2022-08-21T12:16:06;26.40;55.50
49729;DHT22;35617;50.714;7.114;2022-08-21T12:18:32;26.50;55.10
49729;DHT22;35617;50.714;7.114;2022-08-21T12:21:23;26.50;55.10
49729;DHT22;35617;50.714;7.114;2022-08-21T12:26:54;26.60;55.70
49729;DHT22;35617;50.714;7.114;2022-08-21T12:29:33;26.70;55.40
49729;DHT22;35617;50.714;7.114;2022-08-21T12:32:03;26.80;55.50
49729;DHT22;35617;50.714;7.114;2022-08-21T12:34:40;26.90;54.40
49729;DHT22;35617;50.714;7.114;2022-08-21T12:37:16;27.00;54.50
49729;DHT22;35617;50.714;7.114;2022-08-21T12:39:46;27.10;54.00
49729;DHT22;35617;50.714;7.114;2022-08-21T12:42:24;27.20;54.50
49729;DHT22;35617;50.714;7.114;2022-08-21T12:45:01;27.30;54.00
49729;DHT22;35617;50.714;7.114;2022-08-21T12:47:43;27.40;54.00
49729;DHT22;35617;50.714;7.114;2022-08-21T12:50:15;27.40;54.10
49729;DHT22;35617;50.714;7.114;2022-08-21T12:52:57;27.50;53.70
49729;DHT22;35617;50.714;7.114;2022-08-21T12:55:31;27.60;52.70
49729;DHT22;35617;50.714;7.114;2022-08-21T12:57:57;27.70;53.40
49729;DHT22;35617;50.714;7.114;2022-08-21T13:00:25;27.80;53.00
49729;DHT22;35617;50.714;7.114;2022-08-21T13:02:52;28.00;51.50
49729;DHT22;35617;50.714;7.114;2022-08-21T13:05:37;28.00;51.00
49729;DHT22;35617;50.714;7.114;2022-08-21T13:08:08;28.10;50.60
49729;DHT22;35617;50.714;7.114;2022-08-21T13:10:36;28.10;49.70
49729;DHT22;35617;50.714;7.114;2022-08-21T13:13:05;28.20;50.10
49729;DHT22;35617;50.714;7.114;2022-08-21T13:15:35;28.30;50.50
49729;DHT22;35617;50.714;7.114;2022-08-21T13:18:03;28.30;50.70
49729;DHT22;35617;50.714;7.114;2022-08-21T13:20:32;28.50;50.30
49729;DHT22;35617;50.714;7.114;2022-08-21T13:23:01;28.50;50.10
49729;DHT22;35617;50.714;7.114;2022-08-21T13:25:29;28.60;49.90
49729;DHT22;35617;50.714;7.114;2022-08-21T13:28:06;28.60;50.00
49729;DHT22;35617;50.714;7.114;2022-08-21T13:30:33;28.60;48.80
49729;DHT22;35617;50.714;7.114;2022-08-21T13:33:01;28.40;48.60
49729;DHT22;35617;50.714;7.114;2022-08-21T13:35:47;28.40;49.60
49729;DHT22;35617;50.714;7.114;2022-08-21T13:38:13;28.40;49.70
49729;DHT22;35617;50.714;7.114;2022-08-21T13:40:49;28.30;49.80
49729;DHT22;35617;50.714;7.114;2022-08-21T13:43:18;28.30;49.90
49729;DHT22;35617;50.714;7.114;2022-08-21T13:45:51;28.30;50.10
49729;DHT22;35617;50.714;7.114;2022-08-21T13:48:18;28.30;50.00
49729;DHT22;35617;50.714;7.114;2022-08-21T13:50:44;28.40;50.20
49729;DHT22;35617;50.714;7.114;2022-08-21T13:56:41;28.50;49.90
49729;DHT22;35617;50.714;7.114;2022-08-21T13:59:07;28.50;50.30
49729;DHT22;35617;50.714;7.114;2022-08-21T14:01:38;28.40;50.00
49729;DHT22;35617;50.714;7.114;2022-08-21T14:04:22;28.40;49.90
49729;DHT22;35617;50.714;7.114;2022-08-21T14:06:50;28.40;50.50
49729;DHT22;35617;50.714;7.114;2022-08-21T14:09:34;28.30;50.20
49729;DHT22;35617;50.714;7.114;2022-08-21T14:12:14;28.30;50.50
49729;DHT22;35617;50.714;7.114;2022-08-21T14:14:41;28.30;50.60
49729;DHT22;35617;50.714;7.114;2022-08-21T14:17:10;28.30;50.80
49729;DHT22;35617;50.714;7.114;2022-08-21T14:25:03;28.40;51.20
49729;DHT22;35617;50.714;7.114;2022-08-21T14:27:32;28.50;50.00
49729;DHT22;35617;50.714;7.114;2022-08-21T14:30:08;28.60;50.40
49729;DHT22;35617;50.714;7.114;2022-08-21T14:32:40;28.90;50.80
49729;DHT22;35617;50.714;7.114;2022-08-21T14:35:06;29.10;50.00
49729;DHT22;35617;50.714;7.114;2022-08-21T14:37:32;29.10;49.70
49729;DHT22;35617;50.714;7.114;2022-08-21T14:39:58;29.10;49.10
49729;DHT22;35617;50.714;7.114;2022-08-21T14:42:24;29.10;49.70
49729;DHT22;35617;50.714;7.114;2022-08-21T14:44:50;29.10;49.60
49729;DHT22;35617;50.714;7.114;2022-08-21T14:47:16;29.00;49.70
49729;DHT22;35617;50.714;7.114;2022-08-21T14:49:41;29.00;49.50
49729;DHT22;35617;50.714;7.114;2022-08-21T14:52:08;29.20;49.20
49729;DHT22;35617;50.714;7.114;2022-08-21T14:54:33;29.20;49.10
49729;DHT22;35617;50.714;7.114;2022-08-21T14:57:06;29.20;48.90
49729;DHT22;35617;50.714;7.114;2022-08-21T14:59:34;29.20;49.10
49729;DHT22;35617;50.714;7.114;2022-08-21T15:02:02;29.30;49.60
49729;DHT22;35617;50.714;7.114;2022-08-21T15:04:29;29.40;49.30
49729;DHT22;35617;50.714;7.114;2022-08-21T15:06:55;29.30;49.40
49729;DHT22;35617;50.714;7.114;2022-08-21T15:09:21;29.30;49.80
49729;DHT22;35617;50.714;7.114;2022-08-21T15:11:47;29.20;49.50
49729;DHT22;35617;50.714;7.114;2022-08-21T15:14:21;29.20;49.90
49729;DHT22;35617;50.714;7.114;2022-08-21T15:16:48;29.20;49.70
49729;DHT22;35617;50.714;7.114;2022-08-21T15:19:14;29.20;49.90
49729;DHT22;35617;50.714;7.114;2022-08-21T15:21:40;29.10;50.00
49729;DHT22;35617;50.714;7.114;2022-08-21T15:24:05;29.10;50.20
49729;DHT22;35617;50.714;7.114;2022-08-21T15:26:31;29.20;50.10
49729;DHT22;35617;50.714;7.114;2022-08-21T15:28:58;29.10;50.30
49729;DHT22;35617;50.714;7.114;2022-08-21T15:31:24;29.00;50.50
49729;DHT22;35617;50.714;7.114;2022-08-21T15:33:49;29.00;50.50
49729;DHT22;35617;50.714;7.114;2022-08-21T15:36:16;28.80;50.50
49729;DHT22;35617;50.714;7.114;2022-08-21T15:38:43;28.70;50.50
49729;DHT22;35617;50.714;7.114;2022-08-21T15:41:09;28.50;50.60
49729;DHT22;35617;50.714;7.114;2022-08-21T15:43:43;28.40;50.80
49729;DHT22;35617;50.714;7.114;2022-08-21T15:46:12;28.40;51.00
49729;DHT22;35617;50.714;7.114;2022-08-21T15:48:38;28.30;51.40
49729;DHT22;35617;50.714;7.114;2022-08-21T15:51:04;28.10;51.40
49729;DHT22;35617;50.714;7.114;2022-08-21T15:53:30;28.00;51.70
49729;DHT22;35617;50.714;7.114;2022-08-21T15:56:00;27.80;51.90
49729;DHT22;35617;50.714;7.114;2022-08-21T15:58:27;27.80;51.70
49729;DHT22;35617;50.714;7.114;2022-08-21T16:00:52;27.70;51.80
49729;DHT22;35617;50.714;7.114;2022-08-21T16:03:18;27.80;51.80
49729;DHT22;35617;50.714;7.114;2022-08-21T16:05:47;27.80;51.50
49729;DHT22;35617;50.714;7.114;2022-08-21T16:08:18;27.70;51.50
49729;DHT22;35617;50.714;7.114;2022-08-21T16:10:44;27.60;52.20
49729;DHT22;35617;50.714;7.114;2022-08-21T16:13:20;27.60;51.90
49729;DHT22;35617;50.714;7.114;2022-08-21T16:15:48;27.70;51.70
49729;DHT22;35617;50.714;7.114;2022-08-21T16:18:14;27.70;51.50
49729;DHT22;35617;50.714;7.114;2022-08-21T16:20:40;27.70;51.40
49729;DHT22;35617;50.714;7.114;2022-08-21T16:23:06;27.60;51.40
49729;DHT22;35617;50.714;7.114;2022-08-21T16:25:35;27.60;51.50
49729;DHT22;35617;50.714;7.114;2022-08-21T16:28:02;27.60;51.40
49729;DHT22;35617;50.714;7.114;2022-08-21T16:30:29;27.60;51.50
49729;DHT22;35617;50.714;7.114;2022-08-21T16:32:55;27.60;51.40
49729;DHT22;35617;50.714;7.114;2022-08-21T16:35:22;27.60;51.50
49729;DHT22;35617;50.714;7.114;2022-08-21T16:37:49;27.50;51.50
49729;DHT22;35617;50.714;7.114;2022-08-21T16:40:15;27.50;51.50
49729;DHT22;35617;50.714;7.114;2022-08-21T16:42:42;27.50;51.60
49729;DHT22;35617;50.714;7.114;2022-08-21T16:45:10;27.40;51.70
49729;DHT22;35617;50.714;7.114;2022-08-21T16:50:03;27.20;51.40
49729;DHT22;35617;50.714;7.114;2022-08-21T16:52:30;27.10;52.10